Time;durP1;ratioP1;P1;durP2;ratioP2;P2;SDS_P1;SDS_P2;PMS_P1;PMS_P2;Temp;Humidity;BMP_temperature;BMP_pressure;BME280_temperature;BME280_humidity;BME280_pressure;Samples;Min_cycle;Max_cycle;Signal;HPM_P1;HPM_P2
2021/12/16 00:03:12;;;;;;;6.10;4.83;;;;;;;;;;5055484;28;20206;-65
2021/12/16 00:06:01;;;;;;;6.53;4.20;;;;;;;;;;5083737;28;20249;-64
2021/12/16 00:08:34;;;;;;;7.77;4.27;;;;;;;;;;5088272;28;20206;-65
2021/12/16 00:11:13;;;;;;;4.77;3.73;;;;;;;;;;5083954;28;20229;-65
2021/12/16 00:19:46;;;;;;;8.20;4.87;;;;;;;;;;5086601;28;20230;-65
2021/12/16 00:31:03;;;;;;;8.43;5.03;;;;;;;;;;5085798;28;20307;-65
2021/12/16 00:33:36;;;;;;;6.47;4.57;;;;;;;;;;5083100;28;20219;-66
2021/12/16 00:36:05;;;;;;;6.90;4.47;;;;;;;;;;5085820;28;20253;-66
2021/12/16 00:38:32;;;;;;;5.80;4.30;;;;;;;;;;5082478;28;20203;-65
2021/12/16 00:41:00;;;;;;;6.07;3.77;;;;;;;;;;5085643;28;20199;-66
2021/12/16 00:43:35;;;;;;;5.00;3.63;;;;;;;;;;5082118;28;20289;-66
2021/12/16 00:46:15;;;;;;;7.50;3.97;;;;;;;;;;5083277;28;20204;-66
2021/12/16 00:49:04;;;;;;;5.07;3.40;;;;;;;;;;5081110;28;20202;-66
2021/12/16 00:54:16;;;;;;;6.20;4.20;;;;;;;;;;5084268;28;20580;-65
2021/12/16 00:56:45;;;;;;;7.90;4.87;;;;;;;;;;5080474;28;20677;-65
2021/12/16 00:59:19;;;;;;;10.43;4.17;;;;;;;;;;5081811;28;20198;-66
2021/12/16 01:01:54;;;;;;;7.93;3.93;;;;;;;;;;5082413;28;20199;-65
2021/12/16 01:07:20;;;;;;;7.13;4.43;;;;;;;;;;5073693;28;20210;-65
2021/12/16 01:35:00;;;;;;;5.10;3.87;;;;;;;;;;5080210;28;20739;-66
2021/12/16 01:38:01;;;;;;;6.30;4.33;;;;;;;;;;5082456;28;20203;-65
2021/12/16 01:51:34;;;;;;;6.17;4.27;;;;;;;;;;5064207;28;20280;-65
2021/12/16 01:54:30;;;;;;;6.87;4.87;;;;;;;;;;5081436;28;20563;-66
2021/12/16 01:57:05;;;;;;;6.93;4.63;;;;;;;;;;5081422;28;20290;-66
2021/12/16 01:59:35;;;;;;;5.23;4.53;;;;;;;;;;5084532;28;20206;-66
2021/12/16 02:02:12;;;;;;;8.47;4.63;;;;;;;;;;5081006;28;20255;-65
2021/12/16 02:04:54;;;;;;;5.80;4.13;;;;;;;;;;5084591;28;20209;-66
2021/12/16 02:07:44;;;;;;;4.73;4.23;;;;;;;;;;5080684;28;20207;-66
2021/12/16 02:10:12;;;;;;;5.07;3.37;;;;;;;;;;5085691;28;20208;-66
2021/12/16 02:12:53;;;;;;;5.83;3.93;;;;;;;;;;5081186;28;20227;-67
2021/12/16 02:29:15;;;;;;;9.40;4.50;;;;;;;;;;5091072;28;20217;-65
2021/12/16 02:31:53;;;;;;;4.40;4.00;;;;;;;;;;5090511;28;20233;-66
2021/12/16 02:34:30;;;;;;;6.97;3.80;;;;;;;;;;5090378;28;20218;-66
2021/12/16 02:36:58;;;;;;;9.47;4.30;;;;;;;;;;5090221;28;20291;-66
2021/12/16 02:39:27;;;;;;;5.83;4.63;;;;;;;;;;5090577;28;20556;-66
2021/12/16 02:41:55;;;;;;;6.87;4.63;;;;;;;;;;5090276;28;20202;-66
2021/12/16 02:44:39;;;;;;;6.47;4.57;;;;;;;;;;5090480;28;20259;-66
2021/12/16 02:49:52;;;;;;;7.33;4.37;;;;;;;;;;5090556;28;20340;-65
2021/12/16 02:52:22;;;;;;;5.37;4.20;;;;;;;;;;5089598;28;20769;-66
2021/12/16 02:54:49;;;;;;;4.77;4.00;;;;;;;;;;5090357;28;20631;-66
2021/12/16 02:57:17;;;;;;;5.17;3.53;;;;;;;;;;5089451;28;20248;-66
2021/12/16 02:59:44;;;;;;;5.13;3.90;;;;;;;;;;5090316;28;20236;-66
2021/12/16 03:02:15;;;;;;;5.73;3.90;;;;;;;;;;5090158;28;20657;-65
2021/12/16 03:04:43;;;;;;;5.27;3.97;;;;;;;;;;5090198;28;20210;-66
2021/12/16 03:07:12;;;;;;;5.37;3.83;;;;;;;;;;5089950;28;20214;-65
2021/12/16 03:10:24;;;;;;;6.77;3.67;;;;;;;;;;5088110;28;20256;-66
2021/12/16 03:12:59;;;;;;;6.43;4.07;;;;;;;;;;5089910;28;20315;-66
2021/12/16 03:15:39;;;;;;;3.67;3.23;;;;;;;;;;5090272;28;20239;-66
2021/12/16 03:18:15;;;;;;;6.30;4.07;;;;;;;;;;5090058;28;20198;-65
2021/12/16 03:20:46;;;;;;;5.23;4.40;;;;;;;;;;5090095;28;20237;-65
2021/12/16 03:23:28;;;;;;;5.83;4.17;;;;;;;;;;5090321;28;20198;-65
2021/12/16 03:26:22;;;;;;;5.00;3.83;;;;;;;;;;5089835;28;20206;-66
2021/12/16 03:29:15;;;;;;;6.47;4.07;;;;;;;;;;5077978;28;20208;-66
2021/12/16 03:31:59;;;;;;;7.30;4.17;;;;;;;;;;5090010;28;20314;-65
2021/12/16 03:34:43;;;;;;;5.93;4.00;;;;;;;;;;5089797;28;20233;-66
2021/12/16 03:37:16;;;;;;;5.20;4.07;;;;;;;;;;5090086;28;20206;-66
2021/12/16 03:39:45;;;;;;;8.13;4.57;;;;;;;;;;5089662;28;20289;-66
2021/12/16 03:42:14;;;;;;;7.03;4.07;;;;;;;;;;5089928;28;20625;-65
2021/12/16 03:47:30;;;;;;;4.53;3.90;;;;;;;;;;5089577;28;20703;-65
2021/12/16 03:49:57;;;;;;;7.27;4.67;;;;;;;;;;5089669;28;20206;-65
2021/12/16 03:52:24;;;;;;;7.27;4.77;;;;;;;;;;5089437;28;20232;-66
2021/12/16 03:54:52;;;;;;;5.10;4.43;;;;;;;;;;5089757;28;20225;-66
2021/12/16 03:57:22;;;;;;;6.03;4.30;;;;;;;;;;5089201;28;20361;-65
2021/12/16 03:59:50;;;;;;;7.03;4.63;;;;;;;;;;5089643;28;20210;-66
2021/12/16 04:02:20;;;;;;;6.03;3.87;;;;;;;;;;5089809;28;20206;-66
2021/12/16 04:04:47;;;;;;;7.47;4.77;;;;;;;;;;5089867;28;20708;-66
2021/12/16 04:07:15;;;;;;;4.60;3.60;;;;;;;;;;5089520;28;20198;-65
2021/12/16 04:09:42;;;;;;;6.23;4.40;;;;;;;;;;5089677;28;20202;-66
2021/12/16 04:12:12;;;;;;;5.67;4.53;;;;;;;;;;5089104;28;20233;-65
2021/12/16 04:14:41;;;;;;;5.73;4.07;;;;;;;;;;5089824;28;20546;-65
2021/12/16 04:17:09;;;;;;;4.17;3.77;;;;;;;;;;5089613;28;20202;-65
2021/12/16 04:19:36;;;;;;;5.60;4.00;;;;;;;;;;5092113;28;20218;-65
2021/12/16 04:22:05;;;;;;;4.47;4.03;;;;;;;;;;5093087;28;20206;-65
2021/12/16 04:24:32;;;;;;;5.30;3.70;;;;;;;;;;5093515;28;20206;-65
2021/12/16 04:27:00;;;;;;;6.00;4.10;;;;;;;;;;5092866;28;20256;-65
2021/12/16 04:29:27;;;;;;;5.87;4.00;;;;;;;;;;5093312;28;20206;-66
2021/12/16 04:31:56;;;;;;;4.50;3.60;;;;;;;;;;5092959;28;20206;-66
2021/12/16 04:34:24;;;;;;;5.17;3.77;;;;;;;;;;5092984;28;20287;-66
2021/12/16 04:36:51;;;;;;;4.33;3.93;;;;;;;;;;5093186;28;20259;-66
2021/12/16 04:39:19;;;;;;;6.00;4.07;;;;;;;;;;5092662;28;20221;-66
2021/12/16 04:41:47;;;;;;;7.30;4.27;;;;;;;;;;5087041;28;20206;-65
2021/12/16 04:44:15;;;;;;;5.77;4.17;;;;;;;;;;5092403;28;20672;-66
2021/12/16 04:46:43;;;;;;;5.67;4.67;;;;;;;;;;5072138;28;20264;-65
2021/12/16 04:49:12;;;;;;;6.37;4.37;;;;;;;;;;5072269;28;20712;-65
2021/12/16 04:51:40;;;;;;;4.07;3.63;;;;;;;;;;5091682;28;20255;-65
2021/12/16 04:54:08;;;;;;;6.73;4.27;;;;;;;;;;5092220;28;20299;-66
2021/12/16 04:56:37;;;;;;;4.63;3.83;;;;;;;;;;5091983;28;20206;-65
2021/12/16 04:59:08;;;;;;;5.87;3.90;;;;;;;;;;5091729;28;20206;-65
2021/12/16 05:01:35;;;;;;;6.67;4.17;;;;;;;;;;5090717;28;20217;-66
2021/12/16 05:04:02;;;;;;;4.33;3.83;;;;;;;;;;5091950;28;20210;-66
2021/12/16 05:06:30;;;;;;;6.53;3.83;;;;;;;;;;5087882;28;20206;-66
2021/12/16 05:08:58;;;;;;;9.37;4.30;;;;;;;;;;5091911;28;20209;-66
2021/12/16 05:11:25;;;;;;;6.63;4.27;;;;;;;;;;5091116;28;20305;-65
2021/12/16 05:13:52;;;;;;;4.13;3.67;;;;;;;;;;5091613;28;20261;-65
2021/12/16 05:16:19;;;;;;;4.50;4.10;;;;;;;;;;5090956;28;20436;-65
2021/12/16 05:18:47;;;;;;;5.60;4.00;;;;;;;;;;5091650;28;20210;-66
2021/12/16 05:21:37;;;;;;;9.47;4.33;;;;;;;;;;5092039;28;20214;-66
2021/12/16 05:24:16;;;;;;;5.00;4.00;;;;;;;;;;5090180;28;20199;-65
2021/12/16 05:26:43;;;;;;;5.73;3.60;;;;;;;;;;5092028;28;20210;-66
2021/12/16 05:29:10;;;;;;;4.83;4.17;;;;;;;;;;5091389;28;20202;-66
2021/12/16 05:31:38;;;;;;;5.23;3.87;;;;;;;;;;5091592;28;20507;-65
2021/12/16 05:34:06;;;;;;;6.90;4.73;;;;;;;;;;5091306;28;20234;-65
2021/12/16 05:36:33;;;;;;;8.67;5.63;;;;;;;;;;5091701;28;20206;-65
2021/12/16 05:39:01;;;;;;;7.20;4.90;;;;;;;;;;5091345;28;20226;-66
2021/12/16 05:41:29;;;;;;;12.33;5.13;;;;;;;;;;5091738;28;20214;-66
2021/12/16 05:43:56;;;;;;;8.63;5.17;;;;;;;;;;5089513;28;20206;-66
2021/12/16 05:46:24;;;;;;;7.13;5.43;;;;;;;;;;5091091;28;20889;-66
2021/12/16 05:48:52;;;;;;;5.63;5.03;;;;;;;;;;5091241;28;20207;-66
2021/12/16 05:51:21;;;;;;;7.17;4.70;;;;;;;;;;5091314;28;20218;-65
2021/12/16 05:53:50;;;;;;;9.10;4.90;;;;;;;;;;5087102;28;20577;-65
2021/12/16 05:56:17;;;;;;;4.93;4.00;;;;;;;;;;5090931;28;20214;-65
2021/12/16 05:58:45;;;;;;;6.40;4.23;;;;;;;;;;5091121;28;20203;-66
2021/12/16 06:01:14;;;;;;;4.37;3.60;;;;;;;;;;5081475;28;20214;-66
2021/12/16 06:03:41;;;;;;;7.43;4.50;;;;;;;;;;5079460;28;20255;-66
2021/12/16 06:06:09;;;;;;;10.40;6.17;;;;;;;;;;5090726;28;20198;-66
2021/12/16 06:08:36;;;;;;;6.50;4.83;;;;;;;;;;5090649;28;20209;-65
2021/12/16 06:14:08;;;;;;;4.97;4.20;;;;;;;;;;5086691;28;20234;-65
2021/12/16 06:22:30;;;;;;;5.77;4.47;;;;;;;;;;5073272;28;21723;-65
2021/12/16 06:27:45;;;;;;;7.50;5.13;;;;;;;;;;5087422;28;20320;-65
2021/12/16 06:30:15;;;;;;;8.10;5.47;;;;;;;;;;5090304;28;20238;-65
2021/12/16 06:32:43;;;;;;;10.13;5.77;;;;;;;;;;5090769;28;20714;-65
2021/12/16 06:35:11;;;;;;;7.10;4.90;;;;;;;;;;5089541;28;20198;-65
2021/12/16 06:37:41;;;;;;;7.93;4.53;;;;;;;;;;5085793;28;20427;-71
2021/12/16 06:40:09;;;;;;;7.80;5.30;;;;;;;;;;5090452;28;20206;-65
2021/12/16 06:42:40;;;;;;;7.60;4.50;;;;;;;;;;5089900;28;20206;-68
2021/12/16 06:45:12;;;;;;;6.83;4.47;;;;;;;;;;5089725;28;20201;-64
2021/12/16 06:47:44;;;;;;;7.10;4.63;;;;;;;;;;5088921;28;20202;-61
2021/12/16 06:50:21;;;;;;;8.70;4.03;;;;;;;;;;5089924;28;20680;-66
2021/12/16 06:52:50;;;;;;;5.70;4.33;;;;;;;;;;5089420;28;20233;-65
2021/12/16 06:55:24;;;;;;;6.10;4.87;;;;;;;;;;5086323;28;20571;-64
2021/12/16 06:57:55;;;;;;;6.33;4.30;;;;;;;;;;5070362;28;20222;-64
2021/12/16 07:00:30;;;;;;;10.67;4.90;;;;;;;;;;5075834;28;20198;-64
2021/12/16 07:03:01;;;;;;;6.40;4.73;;;;;;;;;;5090744;28;20209;-64
2021/12/16 07:05:30;;;;;;;7.87;5.50;;;;;;;;;;5089212;28;20210;-64
2021/12/16 07:07:57;;;;;;;8.87;5.03;;;;;;;;;;5089222;28;20332;-63
2021/12/16 07:10:25;;;;;;;7.80;5.20;;;;;;;;;;5090436;28;20206;-64
2021/12/16 07:12:52;;;;;;;5.80;4.70;;;;;;;;;;5090185;28;20225;-64
2021/12/16 07:15:21;;;;;;;9.90;5.93;;;;;;;;;;5090193;28;20221;-64
2021/12/16 07:17:49;;;;;;;9.77;5.93;;;;;;;;;;5090311;28;20202;-63
2021/12/16 07:20:18;;;;;;;8.87;5.77;;;;;;;;;;5090355;28;20222;-65
2021/12/16 07:22:45;;;;;;;12.20;6.83;;;;;;;;;;5090162;28;20210;-65
2021/12/16 07:25:13;;;;;;;17.73;7.93;;;;;;;;;;5089952;28;20672;-64
2021/12/16 07:27:40;;;;;;;11.33;6.90;;;;;;;;;;5090273;28;20687;-65
2021/12/16 07:30:08;;;;;;;12.60;6.83;;;;;;;;;;5090483;28;20787;-65
2021/12/16 07:32:35;;;;;;;8.97;5.50;;;;;;;;;;5090486;28;20210;-64
2021/12/16 07:35:03;;;;;;;8.20;5.23;;;;;;;;;;5090645;28;20207;-64
2021/12/16 07:37:31;;;;;;;8.83;5.33;;;;;;;;;;5090514;28;20279;-65
2021/12/16 07:40:00;;;;;;;7.37;5.03;;;;;;;;;;5090755;28;20857;-65
2021/12/16 07:42:32;;;;;;;7.70;5.00;;;;;;;;;;5090519;28;20584;-65
2021/12/16 07:44:59;;;;;;;6.27;4.70;;;;;;;;;;5090888;28;20210;-64
2021/12/16 07:47:28;;;;;;;8.13;4.73;;;;;;;;;;5090149;28;20202;-65
2021/12/16 07:49:55;;;;;;;7.23;5.07;;;;;;;;;;5090549;28;20211;-64
2021/12/16 07:52:23;;;;;;;6.73;4.50;;;;;;;;;;5090326;28;20202;-65
2021/12/16 07:54:51;;;;;;;8.23;4.40;;;;;;;;;;5093393;28;20232;-64
2021/12/16 07:57:19;;;;;;;5.90;4.47;;;;;;;;;;5094386;28;20598;-65
2021/12/16 07:59:47;;;;;;;6.73;4.37;;;;;;;;;;5094447;28;20209;-65
2021/12/16 08:02:14;;;;;;;6.77;5.17;;;;;;;;;;5094473;28;20687;-65
2021/12/16 08:04:44;;;;;;;8.50;5.60;;;;;;;;;;5094280;28;20279;-65
2021/12/16 08:07:14;;;;;;;10.23;5.47;;;;;;;;;;5094255;28;20221;-65
2021/12/16 08:09:41;;;;;;;7.73;5.47;;;;;;;;;;5094288;28;20206;-65
2021/12/16 08:12:12;;;;;;;6.97;5.40;;;;;;;;;;5094212;28;20202;-65
2021/12/16 08:14:39;;;;;;;10.20;6.07;;;;;;;;;;5093376;28;20229;-65
2021/12/16 08:17:06;;;;;;;7.90;5.30;;;;;;;;;;5094150;28;20217;-65
2021/12/16 08:19:33;;;;;;;10.27;5.33;;;;;;;;;;5082007;28;20206;-65
2021/12/16 08:22:00;;;;;;;6.87;4.70;;;;;;;;;;5094003;28;20733;-65
2021/12/16 08:24:28;;;;;;;5.83;4.60;;;;;;;;;;5094063;28;20668;-65
2021/12/16 08:26:55;;;;;;;9.33;5.00;;;;;;;;;;5086697;28;20204;-65
2021/12/16 08:29:24;;;;;;;7.70;5.60;;;;;;;;;;5076022;28;20764;-65
2021/12/16 08:31:51;;;;;;;10.87;5.33;;;;;;;;;;5053517;28;20298;-65
2021/12/16 08:34:25;;;;;;;9.00;5.33;;;;;;;;;;5053409;28;20244;-64
2021/12/16 08:36:52;;;;;;;8.53;5.07;;;;;;;;;;5052897;28;20265;-65
2021/12/16 08:39:22;;;;;;;8.43;5.43;;;;;;;;;;5053221;28;20246;-66
2021/12/16 08:41:52;;;;;;;6.07;4.67;;;;;;;;;;5053259;28;20208;-66
2021/12/16 08:44:19;;;;;;;6.97;4.87;;;;;;;;;;5052520;28;20643;-66
2021/12/16 08:46:50;;;;;;;7.87;4.80;;;;;;;;;;5052717;28;20269;-65
2021/12/16 08:49:18;;;;;;;7.57;3.90;;;;;;;;;;5052416;28;20208;-67
2021/12/16 08:51:48;;;;;;;10.43;6.03;;;;;;;;;;5051831;28;20547;-66
2021/12/16 08:54:16;;;;;;;8.03;5.20;;;;;;;;;;5052427;28;20262;-64
2021/12/16 08:56:45;;;;;;;6.13;4.20;;;;;;;;;;5051232;28;20231;-68
2021/12/16 08:59:12;;;;;;;8.03;5.13;;;;;;;;;;5052010;28;20199;-65
2021/12/16 09:01:41;;;;;;;6.17;4.53;;;;;;;;;;5052253;28;20207;-64
2021/12/16 09:04:10;;;;;;;8.87;5.60;;;;;;;;;;5045717;28;20705;-65
2021/12/16 09:06:37;;;;;;;6.47;5.13;;;;;;;;;;5052344;28;20215;-65
2021/12/16 09:09:04;;;;;;;6.13;4.57;;;;;;;;;;5052079;28;20217;-65
2021/12/16 09:11:37;;;;;;;8.53;5.73;;;;;;;;;;5052182;28;20215;-65
2021/12/16 09:14:04;;;;;;;10.20;5.43;;;;;;;;;;5051812;28;21011;-64
2021/12/16 09:16:32;;;;;;;7.00;5.67;;;;;;;;;;5038164;28;20579;-64
2021/12/16 09:19:00;;;;;;;9.23;6.03;;;;;;;;;;5032222;28;20673;-65
2021/12/16 09:21:30;;;;;;;10.03;5.93;;;;;;;;;;5031980;28;20212;-65
2021/12/16 09:23:58;;;;;;;6.40;5.20;;;;;;;;;;5031576;28;20860;-64
2021/12/16 09:26:26;;;;;;;8.80;5.37;;;;;;;;;;5036367;28;20269;-65
2021/12/16 09:28:54;;;;;;;7.17;5.23;;;;;;;;;;5050765;28;20211;-65
2021/12/16 09:31:23;;;;;;;9.23;5.80;;;;;;;;;;5082956;28;20319;-65
2021/12/16 09:33:51;;;;;;;8.03;5.27;;;;;;;;;;5088736;28;20241;-66
2021/12/16 09:36:19;;;;;;;8.77;5.10;;;;;;;;;;5086060;28;20206;-65
2021/12/16 09:38:49;;;;;;;9.93;6.13;;;;;;;;;;5090389;28;20210;-66
2021/12/16 09:41:16;;;;;;;10.37;6.50;;;;;;;;;;5090978;28;20202;-65
2021/12/16 09:43:45;;;;;;;8.17;5.53;;;;;;;;;;5091182;28;20289;-65
2021/12/16 09:46:13;;;;;;;13.93;6.77;;;;;;;;;;5090916;28;20214;-64
2021/12/16 09:48:41;;;;;;;17.37;7.40;;;;;;;;;;5090529;28;20255;-65
2021/12/16 09:51:09;;;;;;;26.83;11.10;;;;;;;;;;5090472;28;20206;-64
2021/12/16 09:53:38;;;;;;;17.77;8.27;;;;;;;;;;5090557;28;20230;-65
2021/12/16 09:56:09;;;;;;;6.83;5.23;;;;;;;;;;5091099;28;20210;-64
2021/12/16 09:58:40;;;;;;;6.67;4.77;;;;;;;;;;5089738;28;20864;-65
2021/12/16 10:01:09;;;;;;;10.20;5.90;;;;;;;;;;5091216;28;20209;-65
2021/12/16 10:03:36;;;;;;;6.63;5.10;;;;;;;;;;5090577;28;20202;-65
2021/12/16 10:06:04;;;;;;;6.93;4.97;;;;;;;;;;5091431;28;20627;-64
2021/12/16 10:08:31;;;;;;;8.53;5.47;;;;;;;;;;5091477;28;20259;-65
2021/12/16 10:10:59;;;;;;;8.17;5.27;;;;;;;;;;5091461;28;20199;-66
2021/12/16 10:13:38;;;;;;;8.07;5.27;;;;;;;;;;5091209;28;20240;-69
2021/12/16 10:18:50;;;;;;;8.80;5.17;;;;;;;;;;5086978;28;20328;-65
2021/12/16 10:21:22;;;;;;;9.60;5.17;;;;;;;;;;5087721;28;20210;-64
2021/12/16 10:23:49;;;;;;;8.27;5.03;;;;;;;;;;5082876;28;20249;-65
2021/12/16 10:26:17;;;;;;;8.50;5.33;;;;;;;;;;5087266;28;20213;-66
2021/12/16 10:28:46;;;;;;;8.93;5.50;;;;;;;;;;5090270;28;20206;-65
2021/12/16 10:31:15;;;;;;;8.80;5.90;;;;;;;;;;5090584;28;20245;-65
2021/12/16 10:33:43;;;;;;;7.77;5.50;;;;;;;;;;5083167;28;20240;-65
2021/12/16 10:36:12;;;;;;;7.30;5.23;;;;;;;;;;5089948;28;20304;-66
2021/12/16 10:38:41;;;;;;;8.30;5.30;;;;;;;;;;5087738;28;20671;-65
2021/12/16 10:41:10;;;;;;;8.20;5.47;;;;;;;;;;5085638;28;20214;-65
2021/12/16 10:43:40;;;;;;;8.60;5.87;;;;;;;;;;5086224;28;20213;-65
2021/12/16 10:46:09;;;;;;;9.77;5.23;;;;;;;;;;5090665;28;20645;-65
2021/12/16 10:48:38;;;;;;;6.80;4.40;;;;;;;;;;5090437;28;20210;-65
2021/12/16 10:51:07;;;;;;;6.73;5.20;;;;;;;;;;5090398;28;20206;-65
2021/12/16 10:53:52;;;;;;;7.47;4.87;;;;;;;;;;5086630;28;20749;-65
2021/12/16 10:56:26;;;;;;;5.93;4.70;;;;;;;;;;5088002;28;20218;-65
2021/12/16 10:58:54;;;;;;;7.57;5.23;;;;;;;;;;5090048;28;20799;-65
2021/12/16 11:01:45;;;;;;;9.53;5.10;;;;;;;;;;5090234;28;20210;-64
2021/12/16 11:04:15;;;;;;;7.20;5.23;;;;;;;;;;5065093;28;20209;-64
2021/12/16 11:06:44;;;;;;;8.80;5.30;;;;;;;;;;5090041;28;20710;-65
2021/12/16 11:09:24;;;;;;;7.63;5.07;;;;;;;;;;5090258;28;20943;-75
2021/12/16 11:12:05;;;;;;;7.27;4.83;;;;;;;;;;5090238;28;20209;-64
2021/12/16 11:14:32;;;;;;;10.23;5.77;;;;;;;;;;5089847;28;20229;-65
2021/12/16 11:17:00;;;;;;;7.27;4.87;;;;;;;;;;5089811;28;20214;-65
2021/12/16 11:19:45;;;;;;;7.33;5.07;;;;;;;;;;5090250;28;20292;-66
2021/12/16 11:22:13;;;;;;;7.10;4.80;;;;;;;;;;5090171;28;20573;-65
2021/12/16 11:24:41;;;;;;;7.10;5.07;;;;;;;;;;5086469;28;20214;-65
2021/12/16 11:27:24;;;;;;;5.80;4.80;;;;;;;;;;5078330;28;20210;-65
2021/12/16 11:29:51;;;;;;;5.83;5.23;;;;;;;;;;5089430;28;20292;-65
2021/12/16 11:32:39;;;;;;;9.10;5.23;;;;;;;;;;5090041;28;20210;-66
2021/12/16 11:35:24;;;;;;;7.83;5.23;;;;;;;;;;5088997;28;20497;-64
2021/12/16 11:37:53;;;;;;;8.87;5.00;;;;;;;;;;5090603;28;20206;-69
2021/12/16 11:40:21;;;;;;;8.07;5.03;;;;;;;;;;5089906;28;20232;-66
2021/12/16 11:42:58;;;;;;;8.83;5.70;;;;;;;;;;5089764;28;20228;-68
2021/12/16 11:45:35;;;;;;;9.70;4.77;;;;;;;;;;5090427;28;20676;-65
2021/12/16 11:48:03;;;;;;;7.57;4.57;;;;;;;;;;5090454;28;20210;-66
2021/12/16 11:50:34;;;;;;;9.03;5.00;;;;;;;;;;5090670;28;20217;-65
2021/12/16 11:53:03;;;;;;;6.67;4.93;;;;;;;;;;5090605;28;20217;-66
2021/12/16 11:55:31;;;;;;;7.13;4.47;;;;;;;;;;5090246;28;20232;-66
2021/12/16 11:58:03;;;;;;;7.87;5.47;;;;;;;;;;5090544;28;20214;-63
2021/12/16 12:00:31;;;;;;;8.43;5.60;;;;;;;;;;5090776;28;20230;-65
2021/12/16 12:03:00;;;;;;;8.10;5.17;;;;;;;;;;5072997;28;20214;-64
2021/12/16 12:05:29;;;;;;;9.40;5.83;;;;;;;;;;5069994;28;20235;-63
2021/12/16 12:07:59;;;;;;;16.00;7.33;;;;;;;;;;5084618;28;20214;-64
2021/12/16 12:10:38;;;;;;;8.57;6.43;;;;;;;;;;5081940;28;20219;-64
2021/12/16 12:13:18;;;;;;;8.60;5.57;;;;;;;;;;5073387;28;20569;-65
2021/12/16 12:15:52;;;;;;;8.90;5.60;;;;;;;;;;5069631;28;20231;-64
2021/12/16 12:18:31;;;;;;;8.50;5.77;;;;;;;;;;5069215;28;20224;-64
2021/12/16 12:21:15;;;;;;;51.87;18.90;;;;;;;;;;5076372;28;20206;-65
2021/12/16 12:23:42;;;;;;;11.00;6.77;;;;;;;;;;5079384;28;20217;-63
2021/12/16 12:26:14;;;;;;;12.27;5.93;;;;;;;;;;5085398;28;20244;-65
2021/12/16 12:28:41;;;;;;;8.00;5.47;;;;;;;;;;5085632;28;20206;-64
2021/12/16 12:31:08;;;;;;;8.23;5.37;;;;;;;;;;5085185;28;20311;-65
2021/12/16 12:33:35;;;;;;;9.13;6.03;;;;;;;;;;5084784;28;20603;-65
2021/12/16 12:36:02;;;;;;;11.97;7.00;;;;;;;;;;5085102;28;20230;-65
2021/12/16 12:38:30;;;;;;;32.47;18.07;;;;;;;;;;5073940;28;20218;-65
2021/12/16 12:40:57;;;;;;;21.27;12.77;;;;;;;;;;5068467;28;20207;-65
2021/12/16 12:43:26;;;;;;;16.67;10.27;;;;;;;;;;5069918;28;20222;-66
2021/12/16 12:45:53;;;;;;;9.87;6.70;;;;;;;;;;5088531;28;20206;-66
2021/12/16 12:48:21;;;;;;;13.03;7.40;;;;;;;;;;5076420;28;20549;-65
2021/12/16 12:50:49;;;;;;;9.17;5.97;;;;;;;;;;5087159;28;20629;-66
2021/12/16 12:53:18;;;;;;;9.33;6.77;;;;;;;;;;5088164;28;20213;-72
2021/12/16 12:55:46;;;;;;;9.87;6.77;;;;;;;;;;5088684;28;20295;-65
2021/12/16 12:58:14;;;;;;;7.97;5.83;;;;;;;;;;5087833;28;20698;-66
2021/12/16 13:00:45;;;;;;;10.07;5.87;;;;;;;;;;5087971;28;20474;-66
2021/12/16 13:03:17;;;;;;;10.60;5.40;;;;;;;;;;5087866;28;20271;-65
2021/12/16 13:05:50;;;;;;;8.80;5.97;;;;;;;;;;5088034;28;20231;-65
2021/12/16 13:08:19;;;;;;;9.73;5.80;;;;;;;;;;5087215;28;20209;-65
2021/12/16 13:10:48;;;;;;;7.73;5.63;;;;;;;;;;5088178;28;20210;-65
2021/12/16 13:13:29;;;;;;;8.23;5.67;;;;;;;;;;5087954;28;20214;-64
2021/12/16 13:16:16;;;;;;;11.73;6.53;;;;;;;;;;5087943;28;20229;-65
2021/12/16 13:27:09;;;;;;;13.13;6.80;;;;;;;;;;5085329;28;20260;-65
2021/12/16 13:29:40;;;;;;;7.73;5.23;;;;;;;;;;5086425;28;20238;-65
2021/12/16 13:32:14;;;;;;;10.90;6.20;;;;;;;;;;5088195;28;20228;-65
2021/12/16 13:34:53;;;;;;;10.27;7.33;;;;;;;;;;5086845;28;20232;-65
2021/12/16 13:37:23;;;;;;;7.10;5.20;;;;;;;;;;5087125;28;20212;-65
2021/12/16 13:39:53;;;;;;;9.43;6.00;;;;;;;;;;5086941;28;20249;-65
2021/12/16 13:42:20;;;;;;;12.30;6.47;;;;;;;;;;5087289;28;20214;-66
2021/12/16 13:44:53;;;;;;;12.43;5.10;;;;;;;;;;5086605;28;20725;-65
2021/12/16 13:47:37;;;;;;;9.33;6.00;;;;;;;;;;5081851;28;20218;-65
2021/12/16 13:59:28;;;;;;;6.73;5.10;;;;;;;;;;5075983;28;20245;-67
2021/12/16 14:01:54;;;;;;;7.50;5.43;;;;;;;;;;5066747;28;20237;-65
2021/12/16 14:04:55;;;;;;;9.10;6.23;;;;;;;;;;5067376;28;20210;-65
2021/12/16 14:07:52;;;;;;;9.23;5.23;;;;;;;;;;5077317;28;20538;-66
2021/12/16 14:10:22;;;;;;;8.93;5.23;;;;;;;;;;5087169;28;20214;-66
2021/12/16 14:15:58;;;;;;;10.23;5.80;;;;;;;;;;5038678;28;20244;-65
2021/12/16 14:24:13;;;;;;;8.83;5.17;;;;;;;;;;5084687;28;20221;-65
2021/12/16 14:26:51;;;;;;;8.27;5.03;;;;;;;;;;5086809;28;20211;-64
2021/12/16 14:33:03;;;;;;;8.30;5.60;;;;;;;;;;5084580;28;20258;-63
2021/12/16 14:35:15;;;;;;;9.60;5.63;;;;;;;;;;5072791;28;20809;-65
2021/12/16 14:38:02;;;;;;;7.87;5.93;;;;;;;;;;5072865;28;20210;-65
2021/12/16 14:40:49;;;;;;;11.93;6.07;;;;;;;;;;5070541;28;20621;-66
2021/12/16 14:43:24;;;;;;;9.90;5.60;;;;;;;;;;5086079;28;20206;-65
2021/12/16 14:45:57;;;;;;;8.80;5.13;;;;;;;;;;5085674;28;20201;-67
2021/12/16 14:48:32;;;;;;;7.57;5.47;;;;;;;;;;5076734;28;20307;-67
2021/12/16 14:51:00;;;;;;;7.30;5.40;;;;;;;;;;5078747;28;20286;-66
2021/12/16 14:53:31;;;;;;;8.90;5.97;;;;;;;;;;5072088;28;20237;-66
2021/12/16 14:55:59;;;;;;;12.03;6.43;;;;;;;;;;5066063;28;20946;-66
2021/12/16 14:58:27;;;;;;;8.93;5.43;;;;;;;;;;5080616;28;20213;-66
2021/12/16 15:00:56;;;;;;;9.73;5.83;;;;;;;;;;5085884;28;20681;-66
2021/12/16 15:03:26;;;;;;;6.47;4.80;;;;;;;;;;5085491;28;20252;-66
2021/12/16 15:05:55;;;;;;;9.77;5.20;;;;;;;;;;5083388;28;20203;-67
2021/12/16 15:08:27;;;;;;;7.70;5.27;;;;;;;;;;5085877;28;20212;-67
2021/12/16 15:10:56;;;;;;;7.50;5.23;;;;;;;;;;5085858;28;20214;-66
2021/12/16 15:13:29;;;;;;;9.53;5.50;;;;;;;;;;5085450;28;20213;-66
2021/12/16 15:43:49;;;;;;;6.70;5.03;;;;;;;;;;5081048;28;20209;-67
2021/12/16 15:46:16;;;;;;;14.27;5.33;;;;;;;;;;5085109;28;20260;-66
2021/12/16 15:48:47;;;;;;;8.17;5.33;;;;;;;;;;5085009;28;20202;-66
2021/12/16 15:51:14;;;;;;;7.47;5.00;;;;;;;;;;5085274;28;20675;-66
2021/12/16 15:53:43;;;;;;;9.93;5.17;;;;;;;;;;5084412;28;20216;-66
2021/12/16 15:56:11;;;;;;;8.70;5.43;;;;;;;;;;5085211;28;20240;-66
2021/12/16 15:58:40;;;;;;;8.07;5.33;;;;;;;;;;5084552;28;20203;-66
2021/12/16 16:01:10;;;;;;;7.47;5.17;;;;;;;;;;5081948;28;20199;-67
2021/12/16 16:03:38;;;;;;;10.57;5.73;;;;;;;;;;5075715;28;20206;-67
2021/12/16 16:06:09;;;;;;;7.83;5.13;;;;;;;;;;5077917;28;20836;-66
2021/12/16 16:08:38;;;;;;;8.17;5.27;;;;;;;;;;5067398;28;20223;-66
2021/12/16 16:11:07;;;;;;;8.93;5.00;;;;;;;;;;5080470;28;20213;-66
2021/12/16 16:13:40;;;;;;;9.47;4.43;;;;;;;;;;5084515;28;20214;-67
2021/12/16 16:16:09;;;;;;;13.87;5.87;;;;;;;;;;5087829;28;20234;-66
2021/12/16 16:18:40;;;;;;;9.50;5.30;;;;;;;;;;5088127;28;20206;-64
2021/12/16 16:21:10;;;;;;;8.23;5.10;;;;;;;;;;5088212;28;20673;-65
2021/12/16 16:23:39;;;;;;;6.87;5.00;;;;;;;;;;5088861;28;20210;-65
2021/12/16 16:26:07;;;;;;;13.17;5.80;;;;;;;;;;5088186;28;20229;-67
2021/12/16 16:28:34;;;;;;;7.83;5.30;;;;;;;;;;5088137;28;20202;-67
2021/12/16 16:31:01;;;;;;;10.30;4.83;;;;;;;;;;5088314;28;20241;-66
2021/12/16 16:33:33;;;;;;;6.27;4.67;;;;;;;;;;5083620;28;20231;-69
2021/12/16 16:36:04;;;;;;;11.10;5.10;;;;;;;;;;5072613;28;21003;-66
2021/12/16 16:38:32;;;;;;;9.17;5.60;;;;;;;;;;5067774;28;20211;-66
2021/12/16 16:41:01;;;;;;;17.47;9.17;;;;;;;;;;5067886;28;20222;-66
2021/12/16 16:43:31;;;;;;;15.17;8.07;;;;;;;;;;5083606;28;20210;-67
2021/12/16 16:45:59;;;;;;;13.83;8.27;;;;;;;;;;5087495;28;20210;-66
2021/12/16 16:48:44;;;;;;;13.97;7.73;;;;;;;;;;5087234;28;20645;-66
2021/12/16 16:51:15;;;;;;;10.60;6.17;;;;;;;;;;5086883;28;20206;-65
2021/12/16 16:53:51;;;;;;;15.70;8.77;;;;;;;;;;5086838;28;20206;-66
2021/12/16 16:56:33;;;;;;;17.27;6.73;;;;;;;;;;5086806;28;20316;-65
2021/12/16 16:59:04;;;;;;;13.37;6.57;;;;;;;;;;5085817;28;21046;-65
2021/12/16 17:01:31;;;;;;;11.40;6.90;;;;;;;;;;5086932;28;20218;-66
2021/12/16 17:04:00;;;;;;;12.03;7.13;;;;;;;;;;5085952;28;20687;-65
2021/12/16 17:06:30;;;;;;;11.37;6.90;;;;;;;;;;5084707;28;20213;-65
2021/12/16 17:09:00;;;;;;;21.30;9.97;;;;;;;;;;5084894;28;20210;-67
2021/12/16 17:11:27;;;;;;;20.70;8.60;;;;;;;;;;5079979;28;20673;-64
2021/12/16 17:14:00;;;;;;;9.30;4.93;;;;;;;;;;5065876;28;20215;-65
2021/12/16 17:19:15;;;;;;;8.03;5.17;;;;;;;;;;5066412;28;20260;-66
2021/12/16 17:21:48;;;;;;;7.83;4.97;;;;;;;;;;5085796;28;20233;-65
2021/12/16 17:24:16;;;;;;;7.10;5.20;;;;;;;;;;5081533;28;20213;-65
2021/12/16 17:26:45;;;;;;;6.13;4.33;;;;;;;;;;5086153;28;20206;-65
2021/12/16 17:29:14;;;;;;;6.00;4.40;;;;;;;;;;5086653;28;20696;-65
2021/12/16 17:31:42;;;;;;;7.90;5.10;;;;;;;;;;5086218;28;20242;-65
2021/12/16 17:34:13;;;;;;;6.67;4.67;;;;;;;;;;5086223;28;20226;-66
2021/12/16 17:36:44;;;;;;;9.03;5.70;;;;;;;;;;5086031;28;20234;-65